Nearby METAR Reports

 

KIMT - Iron Mountain, Michigan, USA
Distance from station: 0 29mi, 47km
Updated: Sun, 22-Oct-2017 6:54am CDT
Overcast
Overcast
 Wind from S
Wind: S 9 mph , 15 km/h
Temperature: 63°F , 17°C
Dew Point: 55°F , 13°C
Humidity: 77%
Barometer: 29.81 inHg , 1009.5 hPa
Clouds: Overcast
Visibility: 10 miles , 16 km
Cloud details: Few Clouds 2100 ft
Partly cloudy 2800 ft
Overcast 10000 ft
2017/10/22 11:54 KIMT 221154Z AUTO 17008KT 10SM FEW021 SCT028 OVC100 17/13 A2981 RMK AO2 SLP094 60000 T01670133 10178 20161 55002
KMNM - Menominee, Michigan, USA
Distance from station: SE 31mi, 51km
Updated: Sun, 22-Oct-2017 6:56am CDT
Mostly cloudy
Mostly cloudy
 Wind from S
Wind: S 7 mph , 11 km/h
Temperature: 61°F , 16°C
Dew Point: 55°F , 13°C
Humidity: 83%
Barometer: 29.86 inHg , 1011.2 hPa
Clouds: Mostly cloudy
Visibility: 10 miles , 16 km
Cloud details: Mostly cloudy 11000 ft
2017/10/22 11:56 KMNM 221156Z AUTO 19006KT 10SM BKN110 16/13 A2986 RMK AO2 SLP128 T01610133 10183 20161 55005 $
 
KOCQ - Oconto, Wisconsin, USA
Distance from station: SSE 38mi, 61km
Updated: Sun, 22-Oct-2017 6:55am CDT
Overcast
Overcast
 Wind from S
Wind: S 8 mph , 13 km/h
Temperature: 63°F , 17°C
Dew Point: 55°F , 13°C
Humidity: 77%
Barometer: 29.85 inHg , 1010.8 hPa
Clouds: Overcast
Visibility: 10 miles , 16 km
Cloud details: Overcast 11000 ft
2017/10/22 11:55 KOCQ 221155Z AUTO 17007KT 10SM OVC110 17/13 A2985 RMK AO1 T01650133 10171 20160
KEZS - Shawano Muni, Wisconsin, USA
Distance from station: SSW 48mi, 77km
Updated: Sun, 22-Oct-2017 6:55am CDT
Overcast
Overcast
 Wind from S
Wind: S 3 mph , 6 km/h
Temperature: 68°F , 20°C
Dew Point: 59°F , 15°C
Humidity: 73%
Barometer: 29.84 inHg , 1010.5 hPa
Clouds: Overcast
Visibility: 10 miles , 16 km
Cloud details: Mostly cloudy 2600 ft
Overcast 6500 ft
2017/10/22 11:55 KEZS 221155Z AUTO 18003KT 10SM BKN026 OVC065 20/15 A2984 RMK AO2 T01950145 10198 20190
 
KAIG - Antigo/Langlade, Wisconsin, USA
Distance from station: WSW 51mi, 82km
Updated: Sun, 22-Oct-2017 6:55am CDT
Light drizzle, Overcast
Light drizzle, Overcast
 Wind from W
Wind: W 14 mph , 22 km/h, Gust: 21 mph , 33 km/h
Temperature: 54°F , 12°C
Dew Point: 52°F , 11°C
Humidity: 94%
Barometer: 29.86 inHg , 1011.2 hPa
Summary: Light Drizzle
Clouds: Overcast
Visibility: 3 miles , 5 km
Cloud details: Overcast 500 ft
2017/10/22 11:55 KAIG 221155Z AUTO 27012G18KT 3SM -DZ OVC005 12/11 A2986 RMK AO2 T01160114 10168 20116
KSUE - Sturgeon Bay, Wisconsin, USA
Distance from station: SE 51mi, 82km
Updated: Sun, 22-Oct-2017 6:56am CDT
Overcast
Overcast
 Wind from S
Wind: S 16 mph , 26 km/h, Gust: 26 mph , 43 km/h
Temperature: 61°F , 16°C
Dew Point: 54°F , 12°C
Humidity: 77%
Barometer: 29.88 inHg , 1011.9 hPa
Clouds: Overcast
Visibility: 10 miles , 16 km
Cloud details: Overcast 10000 ft
2017/10/22 11:56 KSUE 221156Z AUTO 18014G23KT 10SM OVC100 16/12 A2988 RMK AO2 SLP136 7//// T01560122 10167 20150 55002
 
KESC - Escanaba, Michigan, USA
Distance from station: ENE 56mi, 90km
Updated: Sun, 22-Oct-2017 6:56am CDT
Clear
Clear
 Wind from S
Wind: S 10 mph , 17 km/h
Temperature: 59°F , 15°C
Dew Point: 55°F , 13°C
Humidity: 88%
Barometer: 29.85 inHg , 1010.8 hPa
Clouds: Clear
Visibility: 10 miles , 16 km
2017/10/22 11:56 KESC 221156Z AUTO 18009KT 10SM CLR 15/13 A2985 RMK AO2 SLP130 T01500133 10161 20150 56008
KCLI - Clintonville, Wisconsin, USA
Distance from station: SSW 62mi, 99km
Updated: Sun, 22-Oct-2017 6:59am CDT
Light rain, Overcast
Light rain, Overcast
 Wind from WSW
Wind: WSW 6 mph , 9 km/h
Temperature: 64°F , 18°C
Dew Point: 57°F , 14°C
Humidity: 78%
Barometer: 29.84 inHg , 1010.5 hPa
Summary: Light rain
Clouds: Overcast
Visibility: 10 miles , 16 km
Cloud details: Partly cloudy 2200 ft
Mostly cloudy 2700 ft
Overcast 6000 ft
2017/10/22 11:59 KCLI 221159Z AUTO 24005KT 10SM -RA SCT022 BKN027 OVC060 18/14 A2984 RMK AO2
 
KGRB - Ashwaubenon, Wisconsin, USA
Distance from station: S 63mi, 102km
Updated: Sun, 22-Oct-2017 6:53am CDT
Mostly cloudy
Mostly cloudy
 Wind from S
Wind: S 12 mph , 19 km/h
Temperature: 63°F , 17°C
Dew Point: 57°F , 14°C
Humidity: 83%
Barometer: 29.86 inHg , 1011.2 hPa
Clouds: Mostly cloudy
Visibility: 10 miles , 16 km
Cloud details: Mostly cloudy 10000 ft
2017/10/22 11:53 KGRB 221153Z 17010KT 10SM BKN100 17/14 A2986 RMK AO2 SLP110 60000 T01720144 10194 20172 55007
KEGV - Eagle River, Wisconsin, USA
Distance from station: NW 66mi, 107km
Updated: Sat, 21-Oct-2017 2:15am CDT
NOT Current
Clear
Clear
 Wind from S
Wind: S 3 mph , 6 km/h
Temperature: 61°F , 16°C
Dew Point: 43°F , 6°C
Humidity: 52%
Barometer: 29.89 inHg , 1012.2 hPa
Clouds: Clear
Visibility: 10 miles , 16 km
2017/10/21 07:15 KEGV 210715Z AUTO 19003KT 10SM CLR 16/06 A2989 RMK AO2 T01570055
 
KRHI - Rhinelander, Wisconsin, USA
Distance from station: WNW 68mi, 109km
Updated: Sun, 22-Oct-2017 6:53am CDT
Overcast
Overcast
 Wind from WSW
Wind: WSW 8 mph , 13 km/h
Temperature: 52°F , 11°C
Dew Point: 52°F , 11°C
Humidity: 100%
Barometer: 29.87 inHg , 1011.5 hPa
Clouds: Overcast
Visibility: 10 miles , 16 km
Cloud details: Partly cloudy 800 ft
Overcast 2400 ft
2017/10/22 11:53 KRHI 221153Z AUTO 25007KT 10SM SCT008 OVC024 11/11 A2987 RMK AO2 RAE11B22E38 SLP114 P0000 60020 70020 T01110111 10189 20106 53021
KLNL - Land O Lakes, Wisconsin, USA
Distance from station: NW 74mi, 119km
Updated: Sun, 22-Oct-2017 6:55am CDT
Mist, Overcast
Mist, Overcast
 Wind from W
Wind: W 9 mph , 15 km/h, Gust: 18 mph , 30 km/h
Temperature: 52°F , 11°C
Dew Point: 50°F , 10°C
Humidity: 94%
Barometer: 29.87 inHg , 1011.5 hPa
Summary: Mist
Clouds: Overcast
Visibility: 3 miles , 5 km
Cloud details: Mostly cloudy 800 ft
Overcast 1600 ft
2017/10/22 11:55 KLNL 221155Z AUTO 26008G16KT 210V280 3SM BR BKN008 OVC016 11/10 A2987 RMK AO2 60007 70007 T01120101 10186 20112
 
KSAW - Gwinn/Sawyer, Michigan, USA
Distance from station: NNE 74mi, 120km
Updated: Sun, 22-Oct-2017 6:47am CDT
Clear
Clear
 Wind from S
Wind: S 10 mph , 17 km/h
Temperature: 55°F , 13°C
Dew Point: 55°F , 13°C
Humidity: 100%
Barometer: 29.82 inHg , 1009.8 hPa
Clouds: Clear
Visibility: 10 miles , 16 km
2017/10/22 11:47 KSAW 221147Z 17009KT 10SM SKC 13/13 A2982